Map

Track Data

SID SEASON NUMBER BASIN SUBBASIN NAME ISO_TIME NATURE LAT LON WMO_WIND WMO_PRES WMO_AGENCY TRACK_TYPE DIST2LAND LANDFALL IFLAG USA_AGENCY USA_ATCF_ID USA_LAT USA_LON USA_RECORD USA_STATUS USA_WIND USA_PRES USA_SSHS USA_R34_NE USA_R34_SE USA_R34_SW USA_R34_NW USA_R50_NE USA_R50_SE USA_R50_SW USA_R50_NW USA_R64_NE USA_R64_SE USA_R64_SW USA_R64_NW USA_POCI USA_ROCI USA_RMW USA_EYE TOKYO_LAT TOKYO_LON TOKYO_GRADE TOKYO_WIND TOKYO_PRES TOKYO_R50_DIR TOKYO_R50_LONG TOKYO_R50_SHORT TOKYO_R30_DIR TOKYO_R30_LONG TOKYO_R30_SHORT TOKYO_LAND CMA_LAT CMA_LON CMA_CAT CMA_WIND CMA_PRES HKO_LAT HKO_LON HKO_CAT HKO_WIND HKO_PRES NEWDELHI_LAT NEWDELHI_LON NEWDELHI_GRADE NEWDELHI_WIND NEWDELHI_PRES NEWDELHI_CI NEWDELHI_DP NEWDELHI_POCI REUNION_LAT REUNION_LON REUNION_TYPE REUNION_WIND REUNION_PRES REUNION_TNUM REUNION_CI REUNION_RMW REUNION_R34_NE REUNION_R34_SE REUNION_R34_SW REUNION_R34_NW REUNION_R50_NE REUNION_R50_SE REUNION_R50_SW REUNION_R50_NW REUNION_R64_NE REUNION_R64_SE REUNION_R64_SW REUNION_R64_NW BOM_LAT BOM_LON BOM_TYPE BOM_WIND BOM_PRES BOM_TNUM BOM_CI BOM_RMW BOM_R34_NE BOM_R34_SE BOM_R34_SW BOM_R34_NW BOM_R50_NE BOM_R50_SE BOM_R50_SW BOM_R50_NW BOM_R64_NE BOM_R64_SE BOM_R64_SW BOM_R64_NW BOM_ROCI BOM_POCI BOM_EYE BOM_POS_METHOD BOM_PRES_METHOD NADI_LAT NADI_LON NADI_CAT NADI_WIND NADI_PRES WELLINGTON_LAT WELLINGTON_LON WELLINGTON_WIND WELLINGTON_PRES DS824_LAT DS824_LON DS824_STAGE DS824_WIND DS824_PRES TD9636_LAT TD9636_LON TD9636_STAGE TD9636_WIND TD9636_PRES TD9635_LAT TD9635_LON TD9635_WIND TD9635_PRES TD9635_ROCI NEUMANN_LAT NEUMANN_LON NEUMANN_CLASS NEUMANN_WIND NEUMANN_PRES MLC_LAT MLC_LON MLC_CLASS MLC_WIND MLC_PRES USA_GUST BOM_GUST BOM_GUST_PER REUNION_GUST REUNION_GUST_PER USA_SEAHGT USA_SEARAD_NE USA_SEARAD_SE USA_SEARAD_SW USA_SEARAD_NW STORM_SPEED STORM_DIR
1894275N21088 1894 47 NI BB NOT_NAMED 1894-10-02 00:00:00 TS 20.5000 88.1000 main 116 102 _________O____ -1 20.5000 88.1000 TC 30 4 331
1894275N21088 1894 47 NI BB NOT_NAMED 1894-10-02 03:00:00 TS 20.6667 88.0067 main 102 84 _________PO___ -1 20.7500 87.9601 TC 30 20.5000 88.1000 1 5 330
1894275N21088 1894 47 NI BB NOT_NAMED 1894-10-02 06:00:00 TS 20.9019 87.8539 main 84 63 _________OP___ -1 21.0000 87.8000 TC 30 20.7548 87.9348 1 6 327
1894275N21088 1894 47 NI BB NOT_NAMED 1894-10-02 09:00:00 TS 21.1461 87.6752 main 63 24 _________PP___ -1 21.2500 87.6075 TC 30 21.0076 87.7654 1 6 325
1894275N21088 1894 47 NI BB NOT_NAMED 1894-10-02 12:00:00 TS 21.3783 87.4942 main 24 0 _________OP___ -1 21.5000 87.4000 TC 30 21.2566 87.5884 1 6 324
1894275N21088 1894 47 NI BB NOT_NAMED 1894-10-02 15:00:00 TS 21.6287 87.3037 main 0 0 _________PO___ -1 21.7574 87.2074 TC 30 21.5000 87.4000 1 6 323
1894275N21088 1894 47 NI BB NOT_NAMED 1894-10-02 18:00:00 TS 21.8681 87.0987 main 0 0 _________OP___ -1 22.0000 87.0000 TC 30 21.7362 87.1973 1 6 319
1894275N21088 1894 47 NI BB NOT_NAMED 1894-10-02 21:00:00 TS 22.0862 86.8686 main 0 0 _________PP___ -1 22.2075 86.7574 TC 30 21.9649 86.9797 1 6 314
1894275N21088 1894 47 NI BB NOT_NAMED 1894-10-03 00:00:00 TS 22.2931 86.6236 main 0 0 _________OP___ -1 22.4000 86.5000 TC 30 22.1861 86.7473 1 6 312
1894275N21088 1894 47 NI BB NOT_NAMED 1894-10-03 03:00:00 TS 22.5000 86.3787 main 0 0 _________PO___ -1 22.5999 86.2574 TC 30 22.4000 86.5000 1 6 312
1894275N21088 1894 47 NI BB NOT_NAMED 1894-10-03 06:00:00 TS 22.7076 86.1197 main 0 0 _________OP___ -1 22.8000 86.0000 TC 30 22.6153 86.2393 1 7 309
1894275N21088 1894 47 NI BB NOT_NAMED 1894-10-03 09:00:00 TS 22.9150 85.8325 main 0 0 _________PP___ -1 23.0075 85.7000 TC 30 22.8225 85.9649 1 7 307
1894275N21088 1894 47 NI BB NOT_NAMED 1894-10-03 12:00:00 TS 23.1092 85.5415 main 0 0 _________OP___ -1 23.2000 85.4000 TC 30 23.0184 85.6831 1 6 305
1894275N21088 1894 47 NI BB NOT_NAMED 1894-10-03 15:00:00 TS 23.2787 85.2749 main 0 0 _________PO___ -1 23.3574 85.1498 TC 30 23.2000 85.4000 1 6 304
1894275N21088 1894 47 NI BB NOT_NAMED 1894-10-03 18:00:00 TS 23.4216 85.0342 main 0 0 _________OP___ -1 23.5000 84.9000 TC 30 23.3432 85.1685 1 5 301
1894275N21088 1894 47 NI BB NOT_NAMED 1894-10-03 21:00:00 TS 23.5517 84.7876 main 0 0 _________PP___ -1 23.6272 84.6446 TC 30 23.4761 84.9306 1 6 299
1894275N21088 1894 47 NI BB NOT_NAMED 1894-10-04 00:00:00 TS 23.7105 84.4763 main 0 0 _________OP___ -1 23.8000 84.3000 TC 30 23.6211 84.6525 1 8 300
1894275N21088 1894 47 NI BB NOT_NAMED 1894-10-04 03:00:00 TS 23.9426 84.0439 main 0 0 _________PO___ -1 24.0851 83.7878 TC 30 23.8000 84.3000 1 10 300
1894275N21088 1894 47 NI BB NOT_NAMED 1894-10-04 06:00:00 TS 24.2261 83.5050 main 0 0 _________OP___ -1 24.4000 83.2000 TC 30 24.0523 83.8100 1 12 299
1894275N21088 1894 47 NI BB NOT_NAMED 1894-10-04 09:00:00 TS 24.5007 82.9370 main 0 0 _________PP___ -1 24.6650 82.6274 TC 30 24.3365 83.2467 1 12 298
1894275N21088 1894 47 NI BB NOT_NAMED 1894-10-04 12:00:00 TS 24.7636 82.3799 main 0 0 _________OP___ -1 24.9000 82.1000 TC 30 24.6272 82.6599 1 11 298
1894275N21088 1894 47 NI BB NOT_NAMED 1894-10-04 15:00:00 TS 25.0036 81.8923 main 0 0 _________PO___ -1 25.1071 81.6846 TC 30 24.9000 82.1000 1 9 298
1894275N21088 1894 47 NI BB NOT_NAMED 1894-10-04 18:00:00 TS 25.2066 81.4752 main 0 0 _________OP___ -1 25.3000 81.3000 TC 30 25.1366 81.6066 1 9 298
1894275N21088 1894 47 NI BB NOT_NAMED 1894-10-04 21:00:00 TS 25.4043 81.0504 main 0 0 _________PP___ -1 25.4979 80.8679 TC 30 25.3419 81.1720 1 8 297
1894275N21088 1894 47 NI BB NOT_NAMED 1894-10-05 00:00:00 TS 25.5842 80.6510 main 0 0 _________OP___ -1 25.7000 80.4000 TC 30 25.5264 80.7764 1 7 297
1894275N21088 1894 47 NI BB NOT_NAMED 1894-10-05 03:00:00 NR 25.7000 80.4000 main 0 __________O___ -1 TC 25.7000 80.4000 1 5 297

About IBTrACS Database

This database is a web-friendly format of International Best Track Archive for Climate Stewardship (IBTrACS), a global best track data archive curated by NOAA dating back to 1842.

Updated: 2021-10-25